aviador You're here: Registered users don't get ADS Register

NEW METAR Heatmap

VNKT Decoded Metar

KATHMANDU in NEPAL
Report Time2014-04-23 15:50:00
UTC Time2014-04-23 16:56:18
Flight Rules mvfr MVFR
Wind190° at 05 kt
W.Decomp.*RWY 20: 4.9 kt HW 0.9 kt LCW
W.Rank190° ranks 12
Current wind is below 190° avg. (5.4)
Visibility7000 m
Phenomena:N/A
Clouds:Few 025 Hf
Expected CloudBase > 6,800 ft AGL from Temp-Dew spread
CeilingNone
Temp21°C (ISA +15)
Dew Point04°C (33% RH)
AAT17.9°C
QNH1015 hPa
Density Alt6,132 ft
Elevation4,386 ft
Report Wrong Elevation
Raw Report
METAR VNKT 231550Z 19005KT 7000 FEW025 21/04 Q1015 NOSIG=

Extra information for VNKT:More info

Metar Decoded Metar & Taf Metar Last 4 Metars Taf Meteogram F.Rules Stats Wind Profile Operation Airport Information Weather charts Add Link Nearby VenuesMetar ALERT Social comments Help